Aérodrome :
LOGIN :

S'inscrire | Disclaimer

   EN    FR    IT 

 










Légende :    VFR   VFR Marginal   IFR   IFR Intensif   IFR Très Intensif
Visi : 
Plafond : 
>= 8 km
>= 3000ft
5 à 8 km
1000 à 3000 ft
1500m à 5 km
500 à 1000 ft
800 à 1500m
200 à 500 ft
< 800m
< 200 ft
Symboles :   Orages  Brouillard  Fortes neiges  Fortes précipitations  Vent > 20 kt
SIGMETs :   Divers  Orages  Givrage  Turbulence  Onde Orograph.  Cendres Volcan.







- Altitude de l'aérodrome : 157 ft
- Code IATA : SXF


EDDB - Berlin Schönefeld

DERNIER METAR :
  • 251150Z 27019G29KT 9999 -SHRA FEW025 SCT037CB BKN053 14/11 Q1005 RESHRA TEMPO 27025G35KT

METARs EXPIRÉS :
  • 251120Z 24021KT 9999 -SHRA FEW035 BKN046CB 17/09 Q1004 TEMPO 25025G45KT TSRA
  • 251050Z 24022KT 9999 SCT040 BKN065 19/10 Q1004 TEMPO 23020G35KT SHRA
  • 251020Z 24020KT 9999 SCT040 SCT070 18/09 Q1004 TEMPO 23020G35KT SHRA
  • 250950Z 23016KT 200V260 9999 FEW036 SCT070 18/09 Q1004 TEMPO 23015G25KT
  • 250920Z 22015KT 190V250 9999 FEW028 BKN073 17/10 Q1005 BECMG 23015G25KT

TAF TAF EDDB
Valide du 25 à 12h jusqu'au 26 à 12h UTC


251100Z 2512/2612 25020G35KT 9999 BKN040
TEMPO 2512/2516 27025G45KT SHRA BKN020CB
BECMG 2516/2518 30009KT
BECMG 2518/2521 22003KT
BECMG 2606/2608 25012KT
TEMPO 2608/2612 25015G30KT SHRA BKN020CB
Pas de NOTAMs connus pour ce terrain.



MET'MAP, la Météo Aéronautique d'un coup d'oeil ! - Copyright ORBIFLY Décembre 2007 - Disclaimer

ORBIFLY MET'MAP TEAM :

Programmation & Développement : Alexandra Zaïnal
Conception & Développement : Baudouin d'Aumeries
Co-Programmation & Développement : Marc-Olivier Méhu
Soutien technique & logistique : Manuel Goepfert

Contact : metmap@orbifly.com




SOURCES & CREDITS :

   NOAA